首页
METAR-TAF:

METAR-TAF

机场 :

亞庫塔特, 阿拉斯加州, 美国

纬度: 59-31N, 经度: 139-40W, 海拔: 11米

当前天气观测

该预报发布于18分钟前的05:53 UTC
风速5节,风向
温度 8°C
湿度 93%
气压 1013 hPa
能見度: 16.1公里
散云层高于700英尺
阴天层高于3700英尺

METAR: PAYA 250553Z AUTO 09005KT 10SM SCT007 OVC037 08/07 A2992 RMK AO2 SLP132 60009 T00780072 10083 20078 50000 TSNO $

时间: 22:11 (06:11 UTC)

预报

该预报发布于51分钟前的05:20 UTC
预报有效从25日的 06点(UTC)到 26日的 06点(UTC)
风速5节,风向多变
能見度: 10公里
多云层高于700英尺
多云层高于1500英尺
阴天层高于3500英尺
附近有阵雨
短暂存在
从 25日的 16点(UTC)到 25日的 20点(UTC)
能見度: 8.0公里
小阵雨
从 25日的 2000点(UTC)
风速5节,风向东南
能見度: 10公里
散云层高于700英尺
阴天层高于2000英尺
附近有阵雨

TAF: PAYA 250520Z 2506/2606 VRB05KT P6SM VCSH BKN007 BKN015 OVC035 TEMPO 2516/2520 5SM -SHRA FM252000 13005KT P6SM VCSH SCT007 OVC020 AMD LTD TO CLD VIS AND WIND

超过4000个机场的气象观测和天气预报(METAR&TAF报告)。

可查询的气象台以黄色和红色小点在地图上表示。

将鼠标移到小点上方,可查看气象台名称。

然后点击查看天气观测和预报。

如需切换地图:点击带黑十字的绿色按钮放大地图;点击带横线的绿色按钮缩小地图;或者点击绿色箭头查看邻近地区的地图。


METAR-TAF: